sensor_id;sensor_type;location;lat;lon;timestamp;P1;durP1;ratioP1;P2;durP2;ratioP2
78885;SDS011;68269;52.514;5.722;2023-06-10T00:01:13;6.32;;;1.55;;
78885;SDS011;68269;52.514;5.722;2023-06-10T00:03:46;7.32;;;1.63;;
78885;SDS011;68269;52.514;5.722;2023-06-10T00:06:15;5.93;;;1.58;;
78885;SDS011;68269;52.514;5.722;2023-06-10T00:08:45;7.82;;;2.03;;
78885;SDS011;68269;52.514;5.722;2023-06-10T00:11:14;6.72;;;1.70;;
78885;SDS011;68269;52.514;5.722;2023-06-10T00:13:43;7.85;;;1.83;;
78885;SDS011;68269;52.514;5.722;2023-06-10T00:16:13;7.25;;;1.85;;
78885;SDS011;68269;52.514;5.722;2023-06-10T00:18:46;7.13;;;1.77;;
78885;SDS011;68269;52.514;5.722;2023-06-10T00:21:16;6.10;;;1.88;;
78885;SDS011;68269;52.514;5.722;2023-06-10T00:23:46;9.68;;;2.00;;
78885;SDS011;68269;52.514;5.722;2023-06-10T00:26:15;8.63;;;2.00;;
78885;SDS011;68269;52.514;5.722;2023-06-10T00:28:46;7.60;;;1.70;;
78885;SDS011;68269;52.514;5.722;2023-06-10T00:31:15;9.13;;;2.10;;
78885;SDS011;68269;52.514;5.722;2023-06-10T00:33:47;8.85;;;1.65;;
78885;SDS011;68269;52.514;5.722;2023-06-10T00:36:17;8.13;;;1.90;;
78885;SDS011;68269;52.514;5.722;2023-06-10T00:38:46;7.93;;;1.60;;
78885;SDS011;68269;52.514;5.722;2023-06-10T00:41:15;9.93;;;2.00;;
78885;SDS011;68269;52.514;5.722;2023-06-10T00:43:45;7.80;;;1.83;;
78885;SDS011;68269;52.514;5.722;2023-06-10T00:46:14;7.72;;;1.95;;
78885;SDS011;68269;52.514;5.722;2023-06-10T00:48:44;8.40;;;1.90;;
78885;SDS011;68269;52.514;5.722;2023-06-10T00:51:16;7.03;;;2.05;;
78885;SDS011;68269;52.514;5.722;2023-06-10T00:53:48;9.05;;;2.10;;
78885;SDS011;68269;52.514;5.722;2023-06-10T00:56:17;7.53;;;1.80;;
78885;SDS011;68269;52.514;5.722;2023-06-10T00:58:47;7.55;;;1.92;;
78885;SDS011;68269;52.514;5.722;2023-06-10T01:01:16;6.80;;;1.77;;
78885;SDS011;68269;52.514;5.722;2023-06-10T01:03:49;9.20;;;1.92;;
78885;SDS011;68269;52.514;5.722;2023-06-10T01:06:22;6.88;;;1.80;;
78885;SDS011;68269;52.514;5.722;2023-06-10T01:09:06;7.97;;;1.77;;
78885;SDS011;68269;52.514;5.722;2023-06-10T01:11:47;7.53;;;1.55;;
78885;SDS011;68269;52.514;5.722;2023-06-10T01:14:22;7.50;;;2.40;;
78885;SDS011;68269;52.514;5.722;2023-06-10T01:16:52;7.95;;;2.03;;
78885;SDS011;68269;52.514;5.722;2023-06-10T01:19:25;8.88;;;1.83;;
78885;SDS011;68269;52.514;5.722;2023-06-10T01:21:58;8.98;;;2.03;;
78885;SDS011;68269;52.514;5.722;2023-06-10T01:26:59;8.98;;;1.98;;
78885;SDS011;68269;52.514;5.722;2023-06-10T01:29:33;9.57;;;2.13;;
78885;SDS011;68269;52.514;5.722;2023-06-10T01:32:14;8.45;;;1.73;;
78885;SDS011;68269;52.514;5.722;2023-06-10T01:34:47;8.05;;;2.20;;
78885;SDS011;68269;52.514;5.722;2023-06-10T01:37:20;9.32;;;1.88;;
78885;SDS011;68269;52.514;5.722;2023-06-10T01:39:54;7.78;;;1.95;;
78885;SDS011;68269;52.514;5.722;2023-06-10T01:42:25;8.73;;;1.98;;
78885;SDS011;68269;52.514;5.722;2023-06-10T01:44:56;9.20;;;2.20;;
78885;SDS011;68269;52.514;5.722;2023-06-10T01:47:26;10.23;;;2.20;;
78885;SDS011;68269;52.514;5.722;2023-06-10T01:49:55;9.10;;;1.95;;
78885;SDS011;68269;52.514;5.722;2023-06-10T01:52:27;13.50;;;2.13;;
78885;SDS011;68269;52.514;5.722;2023-06-10T01:54:57;9.98;;;1.85;;
78885;SDS011;68269;52.514;5.722;2023-06-10T01:57:26;8.48;;;2.10;;
78885;SDS011;68269;52.514;5.722;2023-06-10T01:59:55;8.35;;;1.98;;
78885;SDS011;68269;52.514;5.722;2023-06-10T02:02:25;8.27;;;2.20;;
78885;SDS011;68269;52.514;5.722;2023-06-10T02:04:54;10.65;;;2.08;;
78885;SDS011;68269;52.514;5.722;2023-06-10T02:07:23;9.10;;;2.35;;
78885;SDS011;68269;52.514;5.722;2023-06-10T02:09:55;7.82;;;1.98;;
78885;SDS011;68269;52.514;5.722;2023-06-10T02:12:24;14.73;;;2.45;;
78885;SDS011;68269;52.514;5.722;2023-06-10T02:14:54;11.20;;;1.92;;
78885;SDS011;68269;52.514;5.722;2023-06-10T02:17:23;6.53;;;2.05;;
78885;SDS011;68269;52.514;5.722;2023-06-10T02:19:52;7.82;;;1.90;;
78885;SDS011;68269;52.514;5.722;2023-06-10T02:22:24;9.32;;;2.15;;
78885;SDS011;68269;52.514;5.722;2023-06-10T02:24:56;8.57;;;2.20;;
78885;SDS011;68269;52.514;5.722;2023-06-10T02:27:25;10.32;;;2.30;;
78885;SDS011;68269;52.514;5.722;2023-06-10T02:29:55;9.80;;;1.90;;
78885;SDS011;68269;52.514;5.722;2023-06-10T02:32:24;9.48;;;2.47;;
78885;SDS011;68269;52.514;5.722;2023-06-10T02:34:54;7.47;;;1.98;;
78885;SDS011;68269;52.514;5.722;2023-06-10T02:39:59;9.38;;;2.00;;
78885;SDS011;68269;52.514;5.722;2023-06-10T02:44:58;8.57;;;2.00;;
78885;SDS011;68269;52.514;5.722;2023-06-10T02:47:37;9.63;;;2.42;;
78885;SDS011;68269;52.514;5.722;2023-06-10T02:50:08;9.20;;;2.35;;
78885;SDS011;68269;52.514;5.722;2023-06-10T02:52:46;9.50;;;2.60;;
78885;SDS011;68269;52.514;5.722;2023-06-10T02:55:18;6.53;;;2.03;;
78885;SDS011;68269;52.514;5.722;2023-06-10T02:57:53;7.88;;;2.10;;
78885;SDS011;68269;52.514;5.722;2023-06-10T03:00:24;9.88;;;2.25;;
78885;SDS011;68269;52.514;5.722;2023-06-10T03:02:54;10.05;;;2.45;;
78885;SDS011;68269;52.514;5.722;2023-06-10T03:05:28;9.07;;;2.50;;
78885;SDS011;68269;52.514;5.722;2023-06-10T03:08:00;10.25;;;2.63;;
78885;SDS011;68269;52.514;5.722;2023-06-10T03:10:34;9.38;;;2.20;;
78885;SDS011;68269;52.514;5.722;2023-06-10T03:13:03;9.52;;;2.50;;
78885;SDS011;68269;52.514;5.722;2023-06-10T03:15:33;10.15;;;2.60;;
78885;SDS011;68269;52.514;5.722;2023-06-10T03:18:06;13.68;;;2.63;;
78885;SDS011;68269;52.514;5.722;2023-06-10T03:20:36;7.13;;;2.20;;
78885;SDS011;68269;52.514;5.722;2023-06-10T03:23:07;8.73;;;2.28;;
78885;SDS011;68269;52.514;5.722;2023-06-10T03:25:40;9.73;;;2.35;;
78885;SDS011;68269;52.514;5.722;2023-06-10T03:28:13;12.10;;;2.35;;
78885;SDS011;68269;52.514;5.722;2023-06-10T03:30:43;9.27;;;2.30;;
78885;SDS011;68269;52.514;5.722;2023-06-10T03:33:12;8.77;;;2.30;;
78885;SDS011;68269;52.514;5.722;2023-06-10T03:35:44;10.38;;;3.03;;
78885;SDS011;68269;52.514;5.722;2023-06-10T03:38:13;9.23;;;2.10;;
78885;SDS011;68269;52.514;5.722;2023-06-10T03:40:46;10.10;;;2.47;;
78885;SDS011;68269;52.514;5.722;2023-06-10T03:43:15;8.93;;;2.22;;
78885;SDS011;68269;52.514;5.722;2023-06-10T03:45:46;9.05;;;2.35;;
78885;SDS011;68269;52.514;5.722;2023-06-10T03:48:16;8.73;;;2.70;;
78885;SDS011;68269;52.514;5.722;2023-06-10T03:53:19;7.68;;;2.30;;
78885;SDS011;68269;52.514;5.722;2023-06-10T03:55:51;10.88;;;2.78;;
78885;SDS011;68269;52.514;5.722;2023-06-10T03:58:24;10.35;;;2.97;;
78885;SDS011;68269;52.514;5.722;2023-06-10T04:00:54;9.55;;;2.45;;
78885;SDS011;68269;52.514;5.722;2023-06-10T04:03:31;9.80;;;2.40;;
78885;SDS011;68269;52.514;5.722;2023-06-10T04:06:00;8.77;;;2.45;;
78885;SDS011;68269;52.514;5.722;2023-06-10T04:08:30;9.65;;;2.75;;
78885;SDS011;68269;52.514;5.722;2023-06-10T04:11:02;7.57;;;2.30;;
78885;SDS011;68269;52.514;5.722;2023-06-10T04:13:31;8.77;;;2.35;;
78885;SDS011;68269;52.514;5.722;2023-06-10T04:16:01;8.95;;;2.65;;
78885;SDS011;68269;52.514;5.722;2023-06-10T04:18:30;11.23;;;2.72;;
78885;SDS011;68269;52.514;5.722;2023-06-10T04:21:05;12.63;;;2.67;;
78885;SDS011;68269;52.514;5.722;2023-06-10T04:23:34;9.07;;;2.63;;
78885;SDS011;68269;52.514;5.722;2023-06-10T04:26:07;9.90;;;2.42;;
78885;SDS011;68269;52.514;5.722;2023-06-10T04:28:38;9.27;;;2.83;;
78885;SDS011;68269;52.514;5.722;2023-06-10T04:31:07;10.38;;;2.65;;
78885;SDS011;68269;52.514;5.722;2023-06-10T04:33:38;9.30;;;2.58;;
78885;SDS011;68269;52.514;5.722;2023-06-10T04:36:08;9.73;;;2.55;;
78885;SDS011;68269;52.514;5.722;2023-06-10T04:38:37;10.75;;;2.95;;
78885;SDS011;68269;52.514;5.722;2023-06-10T04:41:10;10.82;;;2.95;;
78885;SDS011;68269;52.514;5.722;2023-06-10T04:43:40;8.82;;;2.72;;
78885;SDS011;68269;52.514;5.722;2023-06-10T04:46:09;10.10;;;2.88;;
78885;SDS011;68269;52.514;5.722;2023-06-10T04:48:39;10.88;;;2.50;;
78885;SDS011;68269;52.514;5.722;2023-06-10T04:51:08;10.30;;;2.85;;
78885;SDS011;68269;52.514;5.722;2023-06-10T04:53:37;11.77;;;2.90;;
78885;SDS011;68269;52.514;5.722;2023-06-10T04:56:07;11.00;;;3.45;;
78885;SDS011;68269;52.514;5.722;2023-06-10T04:58:38;11.40;;;2.65;;
78885;SDS011;68269;52.514;5.722;2023-06-10T05:01:08;9.70;;;3.00;;
78885;SDS011;68269;52.514;5.722;2023-06-10T05:03:37;10.50;;;2.80;;
78885;SDS011;68269;52.514;5.722;2023-06-10T05:06:06;12.23;;;3.17;;
78885;SDS011;68269;52.514;5.722;2023-06-10T05:08:35;12.10;;;2.80;;
78885;SDS011;68269;52.514;5.722;2023-06-10T05:11:05;12.98;;;2.65;;
78885;SDS011;68269;52.514;5.722;2023-06-10T05:13:37;9.02;;;2.42;;
78885;SDS011;68269;52.514;5.722;2023-06-10T05:16:06;9.10;;;2.80;;
78885;SDS011;68269;52.514;5.722;2023-06-10T05:18:36;11.55;;;3.38;;
78885;SDS011;68269;52.514;5.722;2023-06-10T05:21:05;10.98;;;2.58;;
78885;SDS011;68269;52.514;5.722;2023-06-10T05:23:34;13.02;;;2.83;;
78885;SDS011;68269;52.514;5.722;2023-06-10T05:26:04;8.60;;;2.53;;
78885;SDS011;68269;52.514;5.722;2023-06-10T05:28:33;9.77;;;2.72;;
78885;SDS011;68269;52.514;5.722;2023-06-10T05:31:05;8.95;;;2.67;;
78885;SDS011;68269;52.514;5.722;2023-06-10T05:33:34;10.23;;;2.85;;
78885;SDS011;68269;52.514;5.722;2023-06-10T05:36:04;9.00;;;2.60;;
78885;SDS011;68269;52.514;5.722;2023-06-10T05:38:34;10.52;;;3.20;;
78885;SDS011;68269;52.514;5.722;2023-06-10T05:41:03;9.52;;;2.70;;
78885;SDS011;68269;52.514;5.722;2023-06-10T05:43:32;9.70;;;2.63;;
78885;SDS011;68269;52.514;5.722;2023-06-10T05:46:04;9.02;;;2.95;;
78885;SDS011;68269;52.514;5.722;2023-06-10T05:48:34;9.93;;;2.85;;
78885;SDS011;68269;52.514;5.722;2023-06-10T05:51:03;11.93;;;3.60;;
78885;SDS011;68269;52.514;5.722;2023-06-10T05:53:32;9.27;;;2.75;;
78885;SDS011;68269;52.514;5.722;2023-06-10T05:56:02;10.50;;;2.67;;
78885;SDS011;68269;52.514;5.722;2023-06-10T05:58:31;12.88;;;3.10;;
78885;SDS011;68269;52.514;5.722;2023-06-10T06:01:00;12.48;;;3.13;;
78885;SDS011;68269;52.514;5.722;2023-06-10T06:03:32;11.45;;;2.88;;
78885;SDS011;68269;52.514;5.722;2023-06-10T06:06:02;10.73;;;3.10;;
78885;SDS011;68269;52.514;5.722;2023-06-10T06:08:31;9.82;;;2.58;;
78885;SDS011;68269;52.514;5.722;2023-06-10T06:11:01;10.43;;;3.55;;
78885;SDS011;68269;52.514;5.722;2023-06-10T06:13:30;10.55;;;3.10;;
78885;SDS011;68269;52.514;5.722;2023-06-10T06:15:59;8.38;;;2.75;;
78885;SDS011;68269;52.514;5.722;2023-06-10T06:18:28;9.80;;;3.05;;
78885;SDS011;68269;52.514;5.722;2023-06-10T06:21:00;11.30;;;3.13;;
78885;SDS011;68269;52.514;5.722;2023-06-10T06:23:30;10.00;;;2.78;;
78885;SDS011;68269;52.514;5.722;2023-06-10T06:25:59;10.70;;;2.78;;
78885;SDS011;68269;52.514;5.722;2023-06-10T06:28:28;9.73;;;3.00;;
78885;SDS011;68269;52.514;5.722;2023-06-10T06:30:57;10.43;;;2.90;;
78885;SDS011;68269;52.514;5.722;2023-06-10T06:33:27;8.27;;;2.78;;
78885;SDS011;68269;52.514;5.722;2023-06-10T06:35:59;10.82;;;3.15;;
78885;SDS011;68269;52.514;5.722;2023-06-10T06:38:28;9.75;;;2.88;;
78885;SDS011;68269;52.514;5.722;2023-06-10T06:40:58;8.48;;;2.92;;
78885;SDS011;68269;52.514;5.722;2023-06-10T06:43:30;11.45;;;2.53;;
78885;SDS011;68269;52.514;5.722;2023-06-10T06:46:18;11.48;;;2.83;;
78885;SDS011;68269;52.514;5.722;2023-06-10T06:48:48;9.90;;;3.17;;
78885;SDS011;68269;52.514;5.722;2023-06-10T06:51:20;10.98;;;2.72;;
78885;SDS011;68269;52.514;5.722;2023-06-10T06:53:49;11.30;;;3.30;;
78885;SDS011;68269;52.514;5.722;2023-06-10T06:56:22;9.82;;;3.05;;
78885;SDS011;68269;52.514;5.722;2023-06-10T06:58:52;9.70;;;2.97;;
78885;SDS011;68269;52.514;5.722;2023-06-10T07:01:22;10.55;;;2.92;;
78885;SDS011;68269;52.514;5.722;2023-06-10T07:03:51;9.00;;;2.72;;
78885;SDS011;68269;52.514;5.722;2023-06-10T07:06:23;11.98;;;2.95;;
78885;SDS011;68269;52.514;5.722;2023-06-10T07:08:52;8.85;;;2.90;;
78885;SDS011;68269;52.514;5.722;2023-06-10T07:11:21;11.68;;;3.03;;
78885;SDS011;68269;52.514;5.722;2023-06-10T07:13:51;9.70;;;2.60;;
78885;SDS011;68269;52.514;5.722;2023-06-10T07:16:21;10.60;;;3.05;;
78885;SDS011;68269;52.514;5.722;2023-06-10T07:18:50;10.93;;;2.60;;
78885;SDS011;68269;52.514;5.722;2023-06-10T07:21:23;12.60;;;2.90;;
78885;SDS011;68269;52.514;5.722;2023-06-10T07:23:54;10.63;;;2.60;;
78885;SDS011;68269;52.514;5.722;2023-06-10T07:26:23;10.65;;;2.97;;
78885;SDS011;68269;52.514;5.722;2023-06-10T07:28:52;10.27;;;3.00;;
78885;SDS011;68269;52.514;5.722;2023-06-10T07:31:22;9.23;;;2.20;;
78885;SDS011;68269;52.514;5.722;2023-06-10T07:33:52;10.07;;;2.90;;
78885;SDS011;68269;52.514;5.722;2023-06-10T07:36:23;11.45;;;2.70;;
78885;SDS011;68269;52.514;5.722;2023-06-10T07:38:55;9.95;;;2.58;;
78885;SDS011;68269;52.514;5.722;2023-06-10T07:41:24;10.60;;;2.78;;
78885;SDS011;68269;52.514;5.722;2023-06-10T07:43:53;9.98;;;2.40;;
78885;SDS011;68269;52.514;5.722;2023-06-10T07:46:23;10.02;;;2.50;;
78885;SDS011;68269;52.514;5.722;2023-06-10T07:48:53;6.82;;;2.22;;
78885;SDS011;68269;52.514;5.722;2023-06-10T07:51:25;7.72;;;2.15;;
78885;SDS011;68269;52.514;5.722;2023-06-10T07:53:54;8.60;;;2.30;;
78885;SDS011;68269;52.514;5.722;2023-06-10T07:56:24;10.50;;;2.45;;
78885;SDS011;68269;52.514;5.722;2023-06-10T07:58:53;10.07;;;2.67;;
78885;SDS011;68269;52.514;5.722;2023-06-10T08:01:22;8.35;;;2.17;;
78885;SDS011;68269;52.514;5.722;2023-06-10T08:03:52;12.57;;;2.83;;
78885;SDS011;68269;52.514;5.722;2023-06-10T08:06:21;10.30;;;2.55;;
78885;SDS011;68269;52.514;5.722;2023-06-10T08:08:53;9.23;;;2.40;;
78885;SDS011;68269;52.514;5.722;2023-06-10T08:11:22;9.95;;;2.40;;
78885;SDS011;68269;52.514;5.722;2023-06-10T08:13:53;9.25;;;2.22;;
78885;SDS011;68269;52.514;5.722;2023-06-10T08:16:23;8.63;;;1.95;;
78885;SDS011;68269;52.514;5.722;2023-06-10T08:18:52;9.05;;;2.75;;
78885;SDS011;68269;52.514;5.722;2023-06-10T08:21:21;9.30;;;2.40;;
78885;SDS011;68269;52.514;5.722;2023-06-10T08:23:54;9.20;;;2.80;;
78885;SDS011;68269;52.514;5.722;2023-06-10T08:26:24;11.23;;;2.85;;
78885;SDS011;68269;52.514;5.722;2023-06-10T08:28:53;9.93;;;2.58;;
78885;SDS011;68269;52.514;5.722;2023-06-10T08:31:22;7.78;;;2.35;;
78885;SDS011;68269;52.514;5.722;2023-06-10T08:33:52;10.70;;;2.85;;
78885;SDS011;68269;52.514;5.722;2023-06-10T08:36:21;10.32;;;2.03;;
78885;SDS011;68269;52.514;5.722;2023-06-10T08:38:51;8.48;;;2.00;;
78885;SDS011;68269;52.514;5.722;2023-06-10T08:41:23;8.38;;;2.03;;
78885;SDS011;68269;52.514;5.722;2023-06-10T08:43:59;7.50;;;1.85;;
78885;SDS011;68269;52.514;5.722;2023-06-10T08:46:35;9.95;;;2.20;;
78885;SDS011;68269;52.514;5.722;2023-06-10T08:49:05;8.77;;;2.33;;
78885;SDS011;68269;52.514;5.722;2023-06-10T08:51:36;7.22;;;2.08;;
78885;SDS011;68269;52.514;5.722;2023-06-10T08:54:11;8.02;;;2.15;;
78885;SDS011;68269;52.514;5.722;2023-06-10T08:56:49;8.18;;;2.13;;
78885;SDS011;68269;52.514;5.722;2023-06-10T08:59:19;10.27;;;2.60;;
78885;SDS011;68269;52.514;5.722;2023-06-10T09:01:49;8.77;;;2.10;;
78885;SDS011;68269;52.514;5.722;2023-06-10T09:04:19;8.68;;;2.45;;
78885;SDS011;68269;52.514;5.722;2023-06-10T09:06:49;7.32;;;2.17;;
78885;SDS011;68269;52.514;5.722;2023-06-10T09:09:18;6.90;;;1.73;;
78885;SDS011;68269;52.514;5.722;2023-06-10T09:11:50;8.48;;;2.65;;
78885;SDS011;68269;52.514;5.722;2023-06-10T09:14:20;8.77;;;2.03;;
78885;SDS011;68269;52.514;5.722;2023-06-10T09:16:49;9.07;;;2.70;;
78885;SDS011;68269;52.514;5.722;2023-06-10T09:19:22;8.93;;;2.50;;
78885;SDS011;68269;52.514;5.722;2023-06-10T09:21:52;8.70;;;2.15;;
78885;SDS011;68269;52.514;5.722;2023-06-10T09:24:21;10.18;;;2.30;;
78885;SDS011;68269;52.514;5.722;2023-06-10T09:26:59;7.40;;;1.75;;
78885;SDS011;68269;52.514;5.722;2023-06-10T09:29:32;7.90;;;2.10;;
78885;SDS011;68269;52.514;5.722;2023-06-10T09:32:13;9.77;;;2.78;;
78885;SDS011;68269;52.514;5.722;2023-06-10T09:34:42;11.50;;;2.63;;
78885;SDS011;68269;52.514;5.722;2023-06-10T09:37:13;8.07;;;2.00;;
78885;SDS011;68269;52.514;5.722;2023-06-10T09:42:37;9.82;;;2.30;;
78885;SDS011;68269;52.514;5.722;2023-06-10T09:45:07;9.18;;;2.08;;
78885;SDS011;68269;52.514;5.722;2023-06-10T09:47:37;6.82;;;2.30;;
78885;SDS011;68269;52.514;5.722;2023-06-10T09:50:07;8.02;;;1.98;;
78885;SDS011;68269;52.514;5.722;2023-06-10T09:52:37;9.93;;;2.15;;
78885;SDS011;68269;52.514;5.722;2023-06-10T09:55:08;10.30;;;2.38;;
78885;SDS011;68269;52.514;5.722;2023-06-10T09:57:41;8.60;;;2.20;;
78885;SDS011;68269;52.514;5.722;2023-06-10T10:00:14;9.98;;;2.17;;
78885;SDS011;68269;52.514;5.722;2023-06-10T10:02:45;8.15;;;2.20;;
78885;SDS011;68269;52.514;5.722;2023-06-10T10:05:16;11.50;;;2.55;;
78885;SDS011;68269;52.514;5.722;2023-06-10T10:07:47;8.45;;;2.05;;
78885;SDS011;68269;52.514;5.722;2023-06-10T10:10:17;9.60;;;2.30;;
78885;SDS011;68269;52.514;5.722;2023-06-10T10:12:50;8.85;;;2.33;;
78885;SDS011;68269;52.514;5.722;2023-06-10T10:15:22;14.80;;;2.78;;
78885;SDS011;68269;52.514;5.722;2023-06-10T10:17:55;11.18;;;2.10;;
78885;SDS011;68269;52.514;5.722;2023-06-10T10:20:29;8.30;;;2.10;;
78885;SDS011;68269;52.514;5.722;2023-06-10T10:23:03;6.88;;;2.05;;
78885;SDS011;68269;52.514;5.722;2023-06-10T10:25:34;8.90;;;2.70;;
78885;SDS011;68269;52.514;5.722;2023-06-10T10:28:09;9.25;;;2.53;;
78885;SDS011;68269;52.514;5.722;2023-06-10T10:30:40;9.43;;;2.38;;
78885;SDS011;68269;52.514;5.722;2023-06-10T10:33:12;6.90;;;2.05;;
78885;SDS011;68269;52.514;5.722;2023-06-10T10:35:45;9.60;;;2.13;;
78885;SDS011;68269;52.514;5.722;2023-06-10T10:38:15;7.35;;;1.77;;
78885;SDS011;68269;52.514;5.722;2023-06-10T10:40:44;7.93;;;2.15;;
78885;SDS011;68269;52.514;5.722;2023-06-10T10:43:17;10.48;;;2.33;;
78885;SDS011;68269;52.514;5.722;2023-06-10T10:45:57;7.63;;;2.22;;
78885;SDS011;68269;52.514;5.722;2023-06-10T10:48:27;10.48;;;2.45;;
78885;SDS011;68269;52.514;5.722;2023-06-10T10:51:06;8.00;;;2.47;;
78885;SDS011;68269;52.514;5.722;2023-06-10T10:53:36;7.55;;;2.03;;
78885;SDS011;68269;52.514;5.722;2023-06-10T10:56:12;8.15;;;2.13;;
78885;SDS011;68269;52.514;5.722;2023-06-10T10:58:55;11.30;;;1.90;;
78885;SDS011;68269;52.514;5.722;2023-06-10T11:01:39;7.32;;;1.85;;
78885;SDS011;68269;52.514;5.722;2023-06-10T11:04:11;6.60;;;1.80;;
78885;SDS011;68269;52.514;5.722;2023-06-10T11:06:46;8.40;;;2.05;;
78885;SDS011;68269;52.514;5.722;2023-06-10T11:09:27;9.02;;;2.08;;
78885;SDS011;68269;52.514;5.722;2023-06-10T11:11:57;7.22;;;2.00;;
78885;SDS011;68269;52.514;5.722;2023-06-10T11:14:30;8.18;;;2.05;;
78885;SDS011;68269;52.514;5.722;2023-06-10T11:17:00;7.88;;;2.35;;
78885;SDS011;68269;52.514;5.722;2023-06-10T11:19:32;8.20;;;2.42;;
78885;SDS011;68269;52.514;5.722;2023-06-10T11:22:05;7.72;;;2.33;;
78885;SDS011;68269;52.514;5.722;2023-06-10T11:24:35;12.13;;;2.58;;
78885;SDS011;68269;52.514;5.722;2023-06-10T11:27:16;8.73;;;2.13;;
78885;SDS011;68269;52.514;5.722;2023-06-10T11:29:58;7.28;;;2.20;;
78885;SDS011;68269;52.514;5.722;2023-06-10T11:32:50;7.95;;;2.22;;
78885;SDS011;68269;52.514;5.722;2023-06-10T11:35:23;11.68;;;2.38;;
78885;SDS011;68269;52.514;5.722;2023-06-10T11:37:53;8.63;;;2.38;;
78885;SDS011;68269;52.514;5.722;2023-06-10T11:40:23;7.85;;;2.10;;
78885;SDS011;68269;52.514;5.722;2023-06-10T11:42:52;9.40;;;2.47;;
78885;SDS011;68269;52.514;5.722;2023-06-10T11:45:24;8.25;;;2.17;;
78885;SDS011;68269;52.514;5.722;2023-06-10T11:47:56;8.70;;;2.30;;
78885;SDS011;68269;52.514;5.722;2023-06-10T11:50:29;7.68;;;2.38;;
78885;SDS011;68269;52.514;5.722;2023-06-10T11:52:59;7.18;;;2.40;;
78885;SDS011;68269;52.514;5.722;2023-06-10T11:55:40;9.40;;;2.38;;
78885;SDS011;68269;52.514;5.722;2023-06-10T11:58:13;8.20;;;2.35;;
78885;SDS011;68269;52.514;5.722;2023-06-10T12:00:47;8.88;;;1.95;;
78885;SDS011;68269;52.514;5.722;2023-06-10T12:03:19;8.88;;;2.28;;
78885;SDS011;68269;52.514;5.722;2023-06-10T12:05:55;9.43;;;2.33;;
78885;SDS011;68269;52.514;5.722;2023-06-10T12:08:26;9.05;;;2.30;;
78885;SDS011;68269;52.514;5.722;2023-06-10T12:10:56;10.00;;;2.35;;
78885;SDS011;68269;52.514;5.722;2023-06-10T12:13:26;9.02;;;2.22;;
78885;SDS011;68269;52.514;5.722;2023-06-10T12:16:08;9.10;;;2.10;;
78885;SDS011;68269;52.514;5.722;2023-06-10T12:18:38;8.68;;;2.10;;
78885;SDS011;68269;52.514;5.722;2023-06-10T12:21:15;9.00;;;2.58;;
78885;SDS011;68269;52.514;5.722;2023-06-10T12:26:40;8.40;;;2.50;;
78885;SDS011;68269;52.514;5.722;2023-06-10T12:29:17;8.10;;;2.00;;
78885;SDS011;68269;52.514;5.722;2023-06-10T12:31:57;8.45;;;2.22;;
78885;SDS011;68269;52.514;5.722;2023-06-10T12:34:29;8.23;;;2.15;;
78885;SDS011;68269;52.514;5.722;2023-06-10T12:36:59;8.02;;;2.00;;
78885;SDS011;68269;52.514;5.722;2023-06-10T12:39:30;9.35;;;2.25;;
78885;SDS011;68269;52.514;5.722;2023-06-10T12:41:59;9.00;;;2.03;;
78885;SDS011;68269;52.514;5.722;2023-06-10T12:44:30;8.30;;;2.38;;
78885;SDS011;68269;52.514;5.722;2023-06-10T12:47:09;8.73;;;2.08;;
78885;SDS011;68269;52.514;5.722;2023-06-10T12:49:40;6.13;;;2.08;;
78885;SDS011;68269;52.514;5.722;2023-06-10T12:52:10;8.45;;;3.28;;
78885;SDS011;68269;52.514;5.722;2023-06-10T12:54:39;8.93;;;2.38;;
78885;SDS011;68269;52.514;5.722;2023-06-10T12:57:08;7.82;;;2.50;;
78885;SDS011;68269;52.514;5.722;2023-06-10T12:59:38;8.68;;;2.10;;
78885;SDS011;68269;52.514;5.722;2023-06-10T13:04:43;7.25;;;2.05;;
78885;SDS011;68269;52.514;5.722;2023-06-10T13:07:12;9.13;;;2.75;;
78885;SDS011;68269;52.514;5.722;2023-06-10T13:09:42;8.73;;;2.35;;
78885;SDS011;68269;52.514;5.722;2023-06-10T13:12:14;8.02;;;2.22;;
78885;SDS011;68269;52.514;5.722;2023-06-10T13:14:44;6.50;;;2.10;;
78885;SDS011;68269;52.514;5.722;2023-06-10T13:17:17;7.63;;;2.30;;
78885;SDS011;68269;52.514;5.722;2023-06-10T13:19:46;5.65;;;2.00;;
78885;SDS011;68269;52.514;5.722;2023-06-10T13:22:15;6.60;;;1.73;;
78885;SDS011;68269;52.514;5.722;2023-06-10T13:24:45;7.88;;;1.90;;
78885;SDS011;68269;52.514;5.722;2023-06-10T13:27:15;8.68;;;2.30;;
78885;SDS011;68269;52.514;5.722;2023-06-10T13:29:44;9.88;;;2.20;;
78885;SDS011;68269;52.514;5.722;2023-06-10T13:32:13;6.85;;;2.25;;
78885;SDS011;68269;52.514;5.722;2023-06-10T13:34:45;7.45;;;2.20;;
78885;SDS011;68269;52.514;5.722;2023-06-10T13:37:15;6.70;;;1.90;;
78885;SDS011;68269;52.514;5.722;2023-06-10T13:39:45;7.60;;;2.30;;
78885;SDS011;68269;52.514;5.722;2023-06-10T13:42:16;7.85;;;2.25;;
78885;SDS011;68269;52.514;5.722;2023-06-10T13:44:46;6.30;;;1.83;;
78885;SDS011;68269;52.514;5.722;2023-06-10T13:47:19;7.47;;;1.90;;
78885;SDS011;68269;52.514;5.722;2023-06-10T13:49:49;7.15;;;2.03;;
78885;SDS011;68269;52.514;5.722;2023-06-10T13:52:19;6.18;;;1.70;;
78885;SDS011;68269;52.514;5.722;2023-06-10T13:54:48;6.03;;;1.80;;
78885;SDS011;68269;52.514;5.722;2023-06-10T13:57:17;7.28;;;1.90;;
78885;SDS011;68269;52.514;5.722;2023-06-10T13:59:47;8.93;;;2.03;;
78885;SDS011;68269;52.514;5.722;2023-06-10T14:02:16;7.40;;;2.03;;
78885;SDS011;68269;52.514;5.722;2023-06-10T14:04:48;8.30;;;1.95;;
78885;SDS011;68269;52.514;5.722;2023-06-10T14:07:17;6.22;;;1.50;;
78885;SDS011;68269;52.514;5.722;2023-06-10T14:09:47;8.68;;;1.73;;
78885;SDS011;68269;52.514;5.722;2023-06-10T14:12:16;5.75;;;2.00;;
78885;SDS011;68269;52.514;5.722;2023-06-10T14:14:46;5.63;;;1.63;;
78885;SDS011;68269;52.514;5.722;2023-06-10T14:17:15;7.68;;;2.15;;
78885;SDS011;68269;52.514;5.722;2023-06-10T14:19:47;9.05;;;2.03;;
78885;SDS011;68269;52.514;5.722;2023-06-10T14:22:16;7.25;;;2.20;;
78885;SDS011;68269;52.514;5.722;2023-06-10T14:24:45;7.82;;;1.98;;
78885;SDS011;68269;52.514;5.722;2023-06-10T14:27:15;6.80;;;1.70;;
78885;SDS011;68269;52.514;5.722;2023-06-10T14:29:45;6.40;;;1.88;;
78885;SDS011;68269;52.514;5.722;2023-06-10T14:32:15;8.45;;;2.00;;
78885;SDS011;68269;52.514;5.722;2023-06-10T14:34:46;8.38;;;1.95;;
78885;SDS011;68269;52.514;5.722;2023-06-10T14:37:16;7.60;;;1.70;;
78885;SDS011;68269;52.514;5.722;2023-06-10T14:39:45;5.65;;;1.92;;
78885;SDS011;68269;52.514;5.722;2023-06-10T14:42:14;5.93;;;1.73;;
78885;SDS011;68269;52.514;5.722;2023-06-10T14:44:43;5.65;;;1.42;;
78885;SDS011;68269;52.514;5.722;2023-06-10T14:47:13;6.03;;;1.73;;
78885;SDS011;68269;52.514;5.722;2023-06-10T14:49:42;7.90;;;1.90;;
78885;SDS011;68269;52.514;5.722;2023-06-10T14:52:14;6.82;;;1.73;;
78885;SDS011;68269;52.514;5.722;2023-06-10T14:54:44;6.65;;;1.35;;
78885;SDS011;68269;52.514;5.722;2023-06-10T14:57:13;6.22;;;1.95;;
78885;SDS011;68269;52.514;5.722;2023-06-10T14:59:42;5.82;;;1.90;;
78885;SDS011;68269;52.514;5.722;2023-06-10T15:02:12;8.15;;;1.92;;
78885;SDS011;68269;52.514;5.722;2023-06-10T15:04:41;7.25;;;2.08;;
78885;SDS011;68269;52.514;5.722;2023-06-10T15:07:10;7.75;;;2.17;;
78885;SDS011;68269;52.514;5.722;2023-06-10T15:09:43;6.63;;;2.00;;
78885;SDS011;68269;52.514;5.722;2023-06-10T15:12:12;6.47;;;1.73;;
78885;SDS011;68269;52.514;5.722;2023-06-10T15:14:42;8.75;;;2.60;;
78885;SDS011;68269;52.514;5.722;2023-06-10T15:17:11;7.57;;;2.00;;
78885;SDS011;68269;52.514;5.722;2023-06-10T15:19:40;8.13;;;1.73;;
78885;SDS011;68269;52.514;5.722;2023-06-10T15:22:10;8.82;;;2.20;;
78885;SDS011;68269;52.514;5.722;2023-06-10T15:24:39;6.43;;;1.75;;
78885;SDS011;68269;52.514;5.722;2023-06-10T15:27:11;6.45;;;2.08;;